Time;durP1;ratioP1;P1;durP2;ratioP2;P2;SDS_P1;SDS_P2;PMS_P1;PMS_P2;Temp;Humidity;BMP_temperature;BMP_pressure;BME280_temperature;BME280_humidity;BME280_pressure;Samples;Min_cycle;Max_cycle;Signal;HPM_P1;HPM_P2
2021/11/25 00:01:10;;;;;;;7.43;4.90;;;5.90;99.90;;;;;;5075039;28;20045;-73
2021/11/25 00:03:38;;;;;;;7.77;4.80;;;6.00;99.90;;;;;;5075102;28;20169;-71
2021/11/25 00:06:05;;;;;;;6.17;4.60;;;5.90;99.90;;;;;;5075015;28;20040;-70
2021/11/25 00:08:32;;;;;;;9.33;4.67;;;5.80;99.90;;;;;;5074995;28;20047;-70
2021/11/25 00:10:59;;;;;;;7.93;4.40;;;5.80;99.90;;;;;;5074785;28;20127;-71
2021/11/25 00:13:26;;;;;;;5.77;4.10;;;5.80;99.90;;;;;;5074340;28;20472;-70
2021/11/25 00:15:53;;;;;;;7.67;5.57;;;5.80;99.90;;;;;;5074724;28;20485;-76
2021/11/25 00:18:20;;;;;;;6.17;3.70;;;5.80;99.90;;;;;;5074824;28;20048;-73
2021/11/25 00:20:49;;;;;;;7.10;4.63;;;5.80;99.90;;;;;;5074774;28;20044;-72
2021/11/25 00:23:16;;;;;;;6.80;4.50;;;5.80;99.90;;;;;;5074054;28;20044;-72
2021/11/25 00:25:43;;;;;;;5.07;3.53;;;5.80;99.90;;;;;;5074571;28;20044;-72
2021/11/25 00:28:10;;;;;;;10.13;4.60;;;5.70;99.90;;;;;;5074528;28;20619;-73
2021/11/25 00:30:37;;;;;;;6.83;4.53;;;5.60;99.90;;;;;;5074623;28;20135;-73
2021/11/25 00:33:05;;;;;;;8.43;5.00;;;5.60;99.90;;;;;;5074588;28;20461;-73
2021/11/25 00:35:32;;;;;;;6.60;4.23;;;5.70;99.90;;;;;;5074231;28;20075;-73
2021/11/25 00:38:00;;;;;;;6.53;4.53;;;5.70;99.90;;;;;;5074340;28;20143;-71
2021/11/25 00:40:27;;;;;;;10.10;5.57;;;5.60;99.90;;;;;;5074498;28;20076;-72
2021/11/25 00:42:54;;;;;;;6.63;4.20;;;5.70;99.90;;;;;;5074527;28;20044;-73
2021/11/25 00:45:21;;;;;;;9.13;4.00;;;5.70;99.90;;;;;;5074066;28;20084;-72
2021/11/25 00:47:48;;;;;;;5.53;3.53;;;5.60;99.90;;;;;;5074451;28;20083;-72
2021/11/25 00:50:17;;;;;;;7.00;3.70;;;5.60;99.90;;;;;;5074118;28;20041;-73
2021/11/25 00:52:45;;;;;;;7.20;3.93;;;5.70;99.90;;;;;;5074047;28;20079;-72
2021/11/25 00:55:13;;;;;;;5.80;3.80;;;5.70;99.90;;;;;;5073844;28;20072;-73
2021/11/25 00:57:40;;;;;;;5.70;4.33;;;5.70;99.90;;;;;;5074315;28;20080;-71
2021/11/25 01:00:10;;;;;;;5.37;4.00;;;5.70;99.90;;;;;;5074265;28;20136;-71
2021/11/25 01:02:37;;;;;;;4.20;3.43;;;5.60;99.90;;;;;;5073868;28;20075;-71
2021/11/25 01:05:05;;;;;;;7.87;4.13;;;5.70;99.90;;;;;;5073423;28;20068;-70
2021/11/25 01:07:32;;;;;;;5.50;4.03;;;5.80;99.90;;;;;;5074277;28;20091;-72
2021/11/25 01:09:59;;;;;;;4.87;3.70;;;5.80;99.90;;;;;;5073309;28;20072;-73
2021/11/25 01:12:29;;;;;;;5.60;3.37;;;5.80;99.90;;;;;;5074163;28;20045;-71
2021/11/25 01:14:56;;;;;;;5.97;3.80;;;5.70;99.90;;;;;;5073296;28;20068;-71
2021/11/25 01:17:23;;;;;;;5.93;4.63;;;5.70;99.90;;;;;;5073502;28;20087;-70
2021/11/25 01:19:50;;;;;;;5.33;2.77;;;5.70;99.90;;;;;;5073819;28;20075;-72
2021/11/25 01:22:18;;;;;;;7.00;4.40;;;5.70;99.90;;;;;;5073838;28;20048;-70
2021/11/25 01:24:45;;;;;;;4.83;3.47;;;5.70;99.90;;;;;;5073292;28;20072;-73
2021/11/25 01:27:12;;;;;;;5.73;3.77;;;5.70;99.90;;;;;;5073757;28;20041;-72
2021/11/25 01:29:40;;;;;;;8.33;4.60;;;5.60;99.90;;;;;;5073541;28;20480;-73
2021/11/25 01:32:08;;;;;;;5.83;3.93;;;5.60;99.90;;;;;;5073372;28;20131;-70
2021/11/25 01:34:35;;;;;;;9.00;4.33;;;5.60;99.90;;;;;;5072747;28;20084;-71
2021/11/25 01:37:02;;;;;;;5.63;4.47;;;5.50;99.90;;;;;;5073482;28;20136;-71
2021/11/25 01:39:29;;;;;;;6.10;3.97;;;5.50;99.90;;;;;;5073233;28;20076;-71
2021/11/25 01:41:56;;;;;;;6.03;3.80;;;5.50;99.90;;;;;;5073376;28;20084;-72
2021/11/25 01:44:23;;;;;;;5.53;3.53;;;5.60;99.90;;;;;;5072716;28;20121;-72
2021/11/25 01:46:51;;;;;;;5.40;3.37;;;5.50;99.90;;;;;;5073178;28;20132;-72
2021/11/25 01:49:18;;;;;;;5.70;4.73;;;5.60;99.90;;;;;;5073157;28;20068;-73
2021/11/25 01:51:45;;;;;;;6.43;4.93;;;5.60;99.90;;;;;;5073162;28;20049;-74
2021/11/25 01:54:12;;;;;;;6.30;4.17;;;5.50;99.90;;;;;;5072497;28;20072;-73
2021/11/25 01:56:39;;;;;;;4.60;4.20;;;5.40;99.90;;;;;;5072944;28;20091;-71
2021/11/25 01:59:06;;;;;;;6.23;4.73;;;5.40;99.90;;;;;;5072692;28;20048;-72
2021/11/25 02:01:36;;;;;;;4.90;4.13;;;5.40;99.90;;;;;;5072584;28;20568;-71
2021/11/25 02:04:05;;;;;;;5.40;4.20;;;5.40;99.90;;;;;;5071186;28;20084;-71
2021/11/25 02:06:33;;;;;;;3.77;3.37;;;5.30;99.90;;;;;;5072692;28;20080;-71
2021/11/25 02:09:01;;;;;;;4.77;3.63;;;5.30;99.90;;;;;;5073176;28;20055;-72
2021/11/25 02:11:28;;;;;;;6.47;3.73;;;5.50;99.90;;;;;;5072716;28;20050;-73
2021/11/25 02:13:55;;;;;;;5.67;4.03;;;5.50;99.90;;;;;;5071982;28;20135;-74
2021/11/25 02:16:22;;;;;;;5.70;4.97;;;5.60;99.90;;;;;;5072563;28;20519;-73
2021/11/25 02:18:49;;;;;;;7.77;4.77;;;5.50;99.90;;;;;;5072548;28;20126;-72
2021/11/25 02:21:17;;;;;;;6.17;4.23;;;5.50;99.90;;;;;;5071396;28;20075;-74
2021/11/25 02:23:44;;;;;;;5.07;3.67;;;5.50;99.90;;;;;;5071928;28;20568;-72
2021/11/25 02:26:11;;;;;;;4.60;3.80;;;5.50;99.90;;;;;;5072523;28;20132;-72
2021/11/25 02:28:40;;;;;;;5.93;4.60;;;5.50;99.90;;;;;;5072120;28;20473;-71
2021/11/25 02:31:07;;;;;;;6.63;4.73;;;5.50;99.90;;;;;;5072089;28;20101;-72
2021/11/25 02:33:35;;;;;;;8.43;5.17;;;5.40;99.90;;;;;;5071840;28;20080;-72
2021/11/25 02:36:02;;;;;;;6.47;4.70;;;5.50;99.90;;;;;;5072294;28;20068;-72
2021/11/25 02:38:30;;;;;;;8.07;5.67;;;5.40;99.90;;;;;;5071917;28;20055;-71
2021/11/25 02:40:58;;;;;;;6.07;5.47;;;5.40;99.90;;;;;;5071920;28;20083;-71
2021/11/25 02:43:27;;;;;;;6.60;4.53;;;5.40;99.90;;;;;;5071663;28;20105;-71
2021/11/25 02:45:56;;;;;;;7.73;5.67;;;5.40;99.90;;;;;;5071963;28;20091;-71
2021/11/25 02:48:25;;;;;;;7.67;5.93;;;5.40;99.90;;;;;;5072279;28;20087;-71
2021/11/25 02:50:54;;;;;;;9.43;5.90;;;5.40;99.90;;;;;;5072009;28;20076;-71
2021/11/25 02:53:22;;;;;;;8.20;5.00;;;5.40;99.90;;;;;;5071478;28;20496;-73
2021/11/25 02:55:50;;;;;;;9.30;6.03;;;5.40;99.90;;;;;;5071480;28;20078;-73
2021/11/25 02:58:18;;;;;;;8.53;5.07;;;5.40;99.90;;;;;;5071838;28;20119;-72
2021/11/25 03:00:47;;;;;;;7.47;5.37;;;5.30;99.90;;;;;;5071715;28;20493;-73
2021/11/25 03:03:17;;;;;;;8.33;5.67;;;5.40;99.90;;;;;;5071152;28;20087;-74
2021/11/25 03:05:46;;;;;;;7.67;4.93;;;5.30;99.90;;;;;;5071777;28;20078;-71
2021/11/25 03:08:15;;;;;;;7.67;6.20;;;5.30;99.90;;;;;;5071656;28;20072;-73
2021/11/25 03:10:44;;;;;;;7.20;4.60;;;5.20;99.90;;;;;;5071669;28;20044;-72
2021/11/25 03:13:16;;;;;;;6.70;5.23;;;5.10;99.90;;;;;;5071256;28;20075;-72
2021/11/25 03:15:43;;;;;;;8.02;5.68;;;5.10;99.90;;;;;;5071788;28;20076;-72
2021/11/25 03:18:11;;;;;;;5.97;4.80;;;5.10;99.90;;;;;;5071631;28;20470;-72
2021/11/25 03:20:41;;;;;;;7.57;5.20;;;5.20;99.90;;;;;;5071615;28;20072;-72
2021/11/25 03:23:10;;;;;;;6.93;5.30;;;5.20;99.90;;;;;;5071247;28;20080;-70
2021/11/25 03:25:38;;;;;;;9.67;6.40;;;5.30;99.90;;;;;;5071536;28;20052;-72
2021/11/25 03:28:06;;;;;;;7.37;6.63;;;5.20;99.90;;;;;;5071453;28;20052;-71
2021/11/25 03:30:35;;;;;;;9.77;6.57;;;5.10;99.90;;;;;;5071510;28;20143;-70
2021/11/25 03:33:03;;;;;;;8.00;5.63;;;5.20;99.90;;;;;;5074943;28;20079;-71
2021/11/25 03:35:30;;;;;;;8.57;5.93;;;5.20;99.90;;;;;;5075410;28;20108;-72
2021/11/25 03:37:57;;;;;;;8.03;7.23;;;5.20;99.90;;;;;;5075664;28;20132;-72
2021/11/25 03:40:24;;;;;;;8.20;6.13;;;5.10;99.90;;;;;;5075373;28;20497;-72
2021/11/25 03:42:51;;;;;;;10.77;7.30;;;5.10;99.90;;;;;;5075902;28;20086;-71
2021/11/25 03:45:19;;;;;;;10.73;7.10;;;5.10;99.90;;;;;;5074847;28;20055;-70
2021/11/25 03:47:47;;;;;;;13.53;8.13;;;5.10;99.90;;;;;;5075476;28;20083;-70
2021/11/25 03:50:15;;;;;;;11.07;7.67;;;5.10;99.90;;;;;;5075640;28;20076;-73
2021/11/25 03:52:42;;;;;;;12.17;7.10;;;5.10;99.90;;;;;;5075696;28;20132;-73
2021/11/25 03:55:11;;;;;;;10.47;7.80;;;5.10;99.90;;;;;;5075074;28;20131;-72
2021/11/25 03:57:38;;;;;;;11.77;7.87;;;5.10;99.90;;;;;;5079193;28;20044;-72
2021/11/25 04:00:07;;;;;;;9.53;6.67;;;5.00;99.90;;;;;;5078994;28;20048;-73
2021/11/25 04:02:34;;;;;;;9.13;7.70;;;5.00;99.90;;;;;;5076969;28;20044;-73
2021/11/25 04:05:02;;;;;;;11.80;8.50;;;5.00;99.90;;;;;;5075042;28;20111;-71
2021/11/25 04:07:29;;;;;;;14.13;8.70;;;5.00;99.90;;;;;;5074996;28;20048;-70
2021/11/25 04:09:56;;;;;;;10.23;7.03;;;5.00;99.90;;;;;;5074963;28;20098;-71
2021/11/25 04:12:23;;;;;;;9.50;7.60;;;5.00;99.90;;;;;;5074790;28;20091;-71
2021/11/25 04:14:50;;;;;;;9.93;7.73;;;4.90;99.90;;;;;;5074432;28;20516;-72
2021/11/25 04:17:21;;;;;;;11.70;8.47;;;5.00;99.90;;;;;;5075179;28;20474;-75
2021/11/25 04:19:48;;;;;;;11.85;8.30;;;4.90;99.90;;;;;;5074849;28;20143;-73
2021/11/25 04:22:18;;;;;;;9.77;7.20;;;4.80;99.90;;;;;;5074849;28;20076;-73
2021/11/25 04:24:45;;;;;;;14.60;9.03;;;4.80;99.90;;;;;;5074436;28;20049;-73
2021/11/25 04:27:11;;;;;;;16.43;9.80;;;4.80;99.90;;;;;;5074575;28;20044;-73
2021/11/25 04:29:42;;;;;;;11.43;8.23;;;4.80;99.90;;;;;;5074944;28;20055;-73
2021/11/25 04:37:39;;;;;;;11.60;8.70;;;4.80;99.90;;;;;;5074862;28;20068;-72
2021/11/25 04:40:07;;;;;;;13.33;8.43;;;4.80;99.90;;;;;;5074138;28;20122;-72
2021/11/25 04:42:34;;;;;;;12.60;8.70;;;4.70;99.90;;;;;;5073959;28;20094;-72
2021/11/25 04:45:01;;;;;;;11.80;8.87;;;4.80;99.90;;;;;;5073109;28;20084;-73
2021/11/25 04:47:28;;;;;;;15.57;9.07;;;4.80;99.90;;;;;;5074205;28;20515;-72
2021/11/25 04:49:55;;;;;;;13.27;8.27;;;4.80;99.90;;;;;;5074307;28;20375;-71
2021/11/25 04:52:22;;;;;;;11.23;8.53;;;4.70;99.90;;;;;;5074104;28;20501;-71
2021/11/25 04:54:50;;;;;;;12.77;8.83;;;4.70;99.90;;;;;;5073868;28;20068;-71
2021/11/25 04:57:17;;;;;;;12.17;8.00;;;4.70;99.90;;;;;;5074308;28;20454;-72
2021/11/25 04:59:44;;;;;;;15.67;9.10;;;4.80;99.90;;;;;;5074478;28;20079;-71
2021/11/25 05:02:11;;;;;;;13.33;9.13;;;4.70;99.90;;;;;;5073799;28;20040;-72
2021/11/25 05:04:37;;;;;;;16.13;9.90;;;4.70;99.90;;;;;;5073513;28;20477;-72
2021/11/25 05:07:04;;;;;;;12.97;10.13;;;4.70;99.90;;;;;;5073779;28;20041;-71
2021/11/25 05:09:31;;;;;;;14.20;10.27;;;4.60;99.90;;;;;;5073962;28;20145;-72
2021/11/25 05:12:00;;;;;;;14.57;8.97;;;4.60;99.90;;;;;;5073950;28;20127;-71
2021/11/25 05:14:26;;;;;;;12.63;9.00;;;4.70;99.90;;;;;;5073244;28;20044;-72
2021/11/25 05:16:53;;;;;;;14.97;10.47;;;4.70;99.90;;;;;;5073877;28;20052;-73
2021/11/25 05:19:20;;;;;;;13.40;9.47;;;4.60;99.90;;;;;;5073493;28;20538;-73
2021/11/25 05:21:47;;;;;;;14.90;10.70;;;4.60;99.90;;;;;;5073976;28;20094;-72
2021/11/25 05:24:17;;;;;;;16.63;10.83;;;4.60;99.90;;;;;;5073437;28;20044;-73
2021/11/25 05:26:44;;;;;;;14.83;10.27;;;4.50;99.90;;;;;;5073616;28;20059;-73
2021/11/25 05:29:12;;;;;;;15.80;11.23;;;4.60;99.90;;;;;;5073498;28;20071;-72
2021/11/25 05:31:39;;;;;;;16.57;10.47;;;4.70;99.90;;;;;;5073507;28;20140;-70
2021/11/25 05:34:06;;;;;;;15.67;10.53;;;4.60;99.90;;;;;;5072747;28;20045;-71
2021/11/25 05:36:33;;;;;;;14.63;10.43;;;4.60;99.90;;;;;;5073261;28;20588;-72
2021/11/25 05:39:00;;;;;;;14.63;9.67;;;4.70;99.90;;;;;;5073066;28;20497;-72
2021/11/25 05:41:27;;;;;;;16.77;11.50;;;4.70;99.90;;;;;;5073321;28;20045;-72
2021/11/25 05:43:54;;;;;;;16.90;9.50;;;4.60;99.90;;;;;;5072810;28;20072;-71
2021/11/25 05:46:23;;;;;;;18.30;11.40;;;4.60;99.90;;;;;;5073156;28;20068;-71
2021/11/25 05:48:50;;;;;;;13.50;9.40;;;4.50;99.90;;;;;;5072975;28;20132;-71
2021/11/25 05:51:17;;;;;;;15.03;9.40;;;4.50;99.90;;;;;;5073100;28;20072;-71
2021/11/25 05:53:44;;;;;;;19.57;11.13;;;4.60;99.90;;;;;;5072539;28;20118;-71
2021/11/25 05:56:11;;;;;;;17.40;9.97;;;4.60;99.90;;;;;;5072762;28;20110;-73
2021/11/25 05:58:37;;;;;;;19.27;11.60;;;4.60;99.90;;;;;;5072737;28;20048;-71
2021/11/25 06:01:06;;;;;;;18.30;11.20;;;4.60;99.90;;;;;;5072576;28;20072;-71
2021/11/25 06:03:34;;;;;;;20.00;12.30;;;4.60;99.90;;;;;;5073042;28;20408;-70
2021/11/25 06:06:01;;;;;;;18.33;11.17;;;4.70;99.90;;;;;;5072796;28;20040;-71
2021/11/25 06:08:28;;;;;;;18.73;12.40;;;4.60;99.90;;;;;;5072525;28;20493;-71
2021/11/25 06:10:56;;;;;;;17.03;11.67;;;4.60;99.90;;;;;;5072697;28;20048;-72
2021/11/25 06:13:23;;;;;;;18.10;11.20;;;4.60;99.90;;;;;;5072547;28;20055;-73
2021/11/25 06:15:50;;;;;;;18.93;12.07;;;4.60;99.90;;;;;;5072538;28;20131;-71
2021/11/25 06:18:17;;;;;;;18.10;12.37;;;4.50;99.90;;;;;;5072594;28;20040;-72
2021/11/25 06:20:45;;;;;;;18.03;12.83;;;4.50;99.90;;;;;;5072330;28;20565;-72
2021/11/25 06:23:13;;;;;;;15.83;12.27;;;4.40;99.90;;;;;;5072008;28;20048;-72
2021/11/25 06:25:40;;;;;;;20.47;12.23;;;4.40;99.90;;;;;;5072037;28;20133;-71
2021/11/25 06:28:07;;;;;;;20.00;12.43;;;4.40;99.90;;;;;;5072064;28;20139;-71
2021/11/25 06:30:34;;;;;;;18.27;10.87;;;4.50;99.90;;;;;;5072019;28;20076;-70
2021/11/25 06:33:01;;;;;;;19.87;11.73;;;4.40;99.90;;;;;;5072235;28;20128;-70
2021/11/25 06:35:28;;;;;;;19.83;12.83;;;4.40;99.90;;;;;;5071853;28;20044;-71
2021/11/25 06:37:57;;;;;;;18.37;11.60;;;4.50;99.90;;;;;;5072139;28;20097;-71
2021/11/25 06:40:26;;;;;;;19.43;11.97;;;4.40;99.90;;;;;;5071893;28;20512;-72
2021/11/25 06:42:54;;;;;;;21.83;12.30;;;4.40;99.90;;;;;;5072071;28;20492;-71
2021/11/25 06:45:20;;;;;;;18.30;13.17;;;4.30;99.90;;;;;;5071766;28;20546;-72
2021/11/25 06:47:48;;;;;;;23.73;12.80;;;4.30;99.90;;;;;;5072071;28;20538;-72
2021/11/25 06:50:17;;;;;;;21.30;13.17;;;4.30;99.90;;;;;;5072029;28;20045;-70
2021/11/25 06:52:45;;;;;;;19.57;13.70;;;4.40;99.90;;;;;;5072027;28;20044;-71
2021/11/25 06:55:15;;;;;;;24.13;14.63;;;4.50;99.90;;;;;;5072027;28;20125;-72
2021/11/25 06:57:43;;;;;;;25.20;14.80;;;4.50;99.90;;;;;;5071960;28;20141;-74
2021/11/25 07:00:14;;;;;;;19.87;13.03;;;4.50;99.90;;;;;;5071932;28;20122;-71
2021/11/25 07:02:41;;;;;;;20.60;14.47;;;4.50;99.90;;;;;;5071955;28;20044;-72
2021/11/25 07:05:09;;;;;;;21.10;14.97;;;4.50;99.90;;;;;;5071619;28;20298;-70
2021/11/25 07:07:37;;;;;;;20.17;13.23;;;4.40;99.90;;;;;;5071093;28;20068;-69
2021/11/25 07:10:07;;;;;;;20.40;13.83;;;4.50;99.90;;;;;;5071496;28;20492;-70
2021/11/25 07:12:36;;;;;;;24.83;14.47;;;4.50;99.90;;;;;;5071660;28;20052;-68
2021/11/25 07:15:04;;;;;;;22.10;14.73;;;4.60;99.90;;;;;;5071407;28;20102;-70
2021/11/25 07:17:31;;;;;;;26.53;15.97;;;4.60;99.90;;;;;;5071593;28;20063;-70
2021/11/25 07:19:58;;;;;;;20.47;13.33;;;4.60;99.90;;;;;;5071581;28;20139;-69
2021/11/25 07:22:26;;;;;;;21.17;13.83;;;4.50;99.90;;;;;;5071471;28;20079;-71
2021/11/25 07:24:53;;;;;;;24.27;13.73;;;4.50;99.90;;;;;;5070834;28;20049;-70
2021/11/25 07:27:20;;;;;;;24.40;16.03;;;4.40;99.90;;;;;;5071879;28;20309;-70
2021/11/25 07:29:48;;;;;;;21.40;12.90;;;4.50;99.90;;;;;;5071485;28;20045;-72
2021/11/25 07:32:15;;;;;;;24.03;14.43;;;4.50;99.90;;;;;;5071577;28;20040;-71
2021/11/25 07:34:42;;;;;;;29.33;16.73;;;4.50;99.90;;;;;;5070974;28;20084;-72
2021/11/25 07:37:09;;;;;;;22.70;12.93;;;4.50;99.90;;;;;;5071674;28;20127;-69
2021/11/25 07:39:36;;;;;;;27.83;14.03;;;4.40;99.90;;;;;;5086354;28;20052;-69
2021/11/25 07:42:03;;;;;;;23.83;13.40;;;4.50;99.90;;;;;;5073058;28;20693;-68
2021/11/25 07:44:30;;;;;;;23.00;13.80;;;4.40;99.90;;;;;;5071048;28;20044;-69
2021/11/25 07:46:59;;;;;;;22.67;14.60;;;4.40;99.90;;;;;;5071346;28;20564;-70
2021/11/25 07:49:26;;;;;;;23.30;14.57;;;4.40;99.90;;;;;;5071292;28;20044;-68
2021/11/25 07:51:59;;;;;;;19.50;14.47;;;4.40;99.90;;;;;;5071914;28;20493;-69
2021/11/25 07:54:26;;;;;;;19.47;13.77;;;4.50;99.90;;;;;;5070939;28;20048;-70
2021/11/25 07:56:53;;;;;;;26.17;15.07;;;4.50;99.90;;;;;;5070906;28;20049;-69
2021/11/25 07:59:20;;;;;;;32.10;17.50;;;4.50;99.90;;;;;;5071211;28;20052;-70
2021/11/25 08:01:47;;;;;;;26.07;17.97;;;4.40;99.90;;;;;;5071017;28;20048;-71
2021/11/25 08:04:15;;;;;;;23.37;15.17;;;4.40;99.90;;;;;;5071073;28;20201;-70
2021/11/25 08:06:42;;;;;;;23.17;13.67;;;4.50;99.90;;;;;;5070911;28;20517;-69
2021/11/25 08:09:09;;;;;;;21.83;14.50;;;4.40;99.90;;;;;;5070930;28;20078;-69
2021/11/25 08:11:36;;;;;;;23.87;14.43;;;4.40;99.90;;;;;;5071139;28;20048;-70
2021/11/25 08:14:03;;;;;;;25.77;15.23;;;4.50;99.90;;;;;;5070507;28;20040;-70
2021/11/25 08:16:30;;;;;;;23.13;14.77;;;4.50;99.90;;;;;;5071105;28;20127;-70
2021/11/25 08:18:56;;;;;;;24.50;16.00;;;4.60;99.90;;;;;;5074223;28;20075;-70
2021/11/25 08:21:25;;;;;;;26.67;15.60;;;4.60;99.90;;;;;;5074710;28;20135;-70
2021/11/25 08:23:52;;;;;;;24.67;14.87;;;4.60;99.90;;;;;;5074181;28;20550;-70
2021/11/25 08:26:19;;;;;;;24.37;14.27;;;4.60;99.90;;;;;;5074873;28;20132;-72
2021/11/25 08:28:47;;;;;;;21.57;13.80;;;4.60;99.90;;;;;;5074708;28;20427;-72
2021/11/25 08:31:14;;;;;;;25.27;16.37;;;4.70;99.90;;;;;;5074611;28;20508;-74
2021/11/25 08:33:41;;;;;;;23.67;15.13;;;4.80;99.90;;;;;;5074352;28;20130;-73
2021/11/25 08:36:08;;;;;;;27.20;15.13;;;4.80;99.90;;;;;;5074636;28;20074;-71
2021/11/25 08:38:36;;;;;;;26.10;14.87;;;4.90;99.90;;;;;;5074411;28;20080;-69
2021/11/25 08:41:04;;;;;;;20.87;14.07;;;5.00;99.90;;;;;;5074343;28;20048;-70
2021/11/25 08:43:31;;;;;;;23.23;15.97;;;4.90;99.90;;;;;;5073727;28;20044;-72
2021/11/25 08:45:58;;;;;;;24.90;14.10;;;4.90;99.90;;;;;;5074334;28;20532;-71
2021/11/25 08:48:25;;;;;;;26.50;17.07;;;5.00;99.90;;;;;;5074241;28;20412;-70
2021/11/25 08:50:52;;;;;;;22.50;13.87;;;4.80;99.90;;;;;;5074004;28;20068;-72
2021/11/25 08:53:21;;;;;;;23.97;14.37;;;4.80;99.90;;;;;;5073682;28;20045;-71
2021/11/25 08:55:49;;;;;;;23.67;15.30;;;4.80;99.90;;;;;;5074382;28;20550;-70
2021/11/25 08:58:17;;;;;;;18.47;12.90;;;4.80;99.90;;;;;;5074094;28;20052;-73
2021/11/25 09:00:44;;;;;;;18.80;12.53;;;4.90;99.90;;;;;;5073810;28;20557;-70
2021/11/25 09:03:11;;;;;;;26.27;14.53;;;4.90;99.90;;;;;;5073407;28;20083;-70
2021/11/25 09:05:38;;;;;;;25.10;15.57;;;4.90;99.90;;;;;;5073756;28;20504;-73
2021/11/25 09:08:06;;;;;;;24.67;14.40;;;5.00;99.90;;;;;;5073797;28;20469;-71
2021/11/25 09:10:35;;;;;;;24.27;13.93;;;5.00;99.90;;;;;;5073713;28;20090;-71
2021/11/25 09:13:04;;;;;;;19.63;13.90;;;5.00;99.90;;;;;;5073932;28;20075;-71
2021/11/25 09:15:33;;;;;;;23.07;15.80;;;5.20;99.90;;;;;;5073826;28;20041;-69
2021/11/25 09:18:00;;;;;;;24.13;13.13;;;5.20;99.90;;;;;;5073728;28;20045;-70
2021/11/25 09:20:31;;;;;;;24.23;15.27;;;5.30;99.90;;;;;;5073430;28;20551;-71
2021/11/25 09:22:58;;;;;;;18.42;13.38;;;5.30;99.90;;;;;;5073424;28;20040;-70
2021/11/25 09:25:25;;;;;;;24.50;13.63;;;5.30;99.90;;;;;;5072927;28;20098;-71
2021/11/25 09:27:52;;;;;;;20.80;13.97;;;5.30;99.90;;;;;;5073884;28;20420;-71
2021/11/25 09:30:21;;;;;;;21.03;12.00;;;5.30;99.90;;;;;;5072907;28;20076;-70
2021/11/25 09:32:49;;;;;;;16.40;10.63;;;5.20;99.90;;;;;;5073505;28;20463;-70
2021/11/25 09:35:16;;;;;;;20.90;13.80;;;5.30;99.90;;;;;;5072927;28;20197;-70
2021/11/25 09:37:43;;;;;;;18.87;12.33;;;5.20;99.90;;;;;;5073194;28;20098;-74
2021/11/25 09:40:21;;;;;;;16.70;10.43;;;5.20;99.90;;;;;;5073277;28;20099;-70
2021/11/25 09:42:48;;;;;;;16.83;10.73;;;5.20;99.90;;;;;;5073416;28;20049;-70
2021/11/25 09:45:16;;;;;;;18.33;12.70;;;5.00;99.90;;;;;;5073127;28;20048;-72
2021/11/25 09:47:45;;;;;;;15.53;10.73;;;5.10;99.90;;;;;;5073151;28;20051;-72
2021/11/25 09:50:12;;;;;;;18.20;11.13;;;5.00;99.90;;;;;;5073010;28;20135;-71
2021/11/25 09:52:39;;;;;;;20.50;14.13;;;5.00;99.90;;;;;;5073094;28;20048;-71
2021/11/25 09:55:06;;;;;;;15.73;11.10;;;5.10;99.90;;;;;;5072434;28;20052;-69
2021/11/25 09:57:33;;;;;;;21.07;11.73;;;5.20;99.90;;;;;;5073106;28;20045;-69
2021/11/25 10:00:00;;;;;;;15.43;10.83;;;5.20;99.90;;;;;;5075147;28;20567;-69
2021/11/25 10:02:28;;;;;;;18.30;10.77;;;5.20;99.90;;;;;;5075876;28;20056;-73
2021/11/25 10:04:56;;;;;;;17.67;11.33;;;5.20;99.90;;;;;;5073692;28;20052;-73
2021/11/25 10:07:31;;;;;;;18.70;12.00;;;5.10;99.90;;;;;;5073469;28;20068;-73
2021/11/25 10:09:58;;;;;;;16.17;11.93;;;5.20;99.90;;;;;;5073433;28;20102;-70
2021/11/25 10:12:36;;;;;;;15.90;11.77;;;5.10;99.90;;;;;;5073939;28;20151;-74
2021/11/25 10:15:23;;;;;;;17.53;11.37;;;5.30;99.90;;;;;;5072778;28;20048;-72
2021/11/25 10:17:51;;;;;;;20.27;11.47;;;5.30;99.90;;;;;;5077106;28;20135;-72
2021/11/25 10:20:20;;;;;;;14.63;10.43;;;5.20;99.90;;;;;;5076432;28;20420;-74
2021/11/25 10:23:14;;;;;;;14.77;10.20;;;5.10;99.90;;;;;;5076872;28;20044;-73
2021/11/25 10:25:46;;;;;;;14.23;9.53;;;5.10;99.90;;;;;;5075061;28;20170;-72
2021/11/25 10:28:23;;;;;;;14.00;8.93;;;5.20;99.90;;;;;;5075829;28;20055;-73
2021/11/25 10:30:51;;;;;;;12.90;8.37;;;5.00;99.90;;;;;;5074314;28;20112;-75
2021/11/25 10:33:23;;;;;;;12.70;9.30;;;5.10;99.90;;;;;;5073273;28;20098;-72
2021/11/25 10:36:15;;;;;;;11.07;8.23;;;5.30;99.90;;;;;;5074553;28;20051;-72
2021/11/25 10:39:01;;;;;;;13.83;9.50;;;5.20;99.90;;;;;;5072738;28;20040;-71
2021/11/25 10:41:30;;;;;;;12.00;8.30;;;5.20;99.90;;;;;;5071552;28;20048;-71
2021/11/25 10:44:07;;;;;;;13.43;9.60;;;5.10;99.90;;;;;;5071496;28;20045;-71
2021/11/25 10:46:40;;;;;;;15.97;10.50;;;5.10;99.90;;;;;;5072021;28;20506;-71
2021/11/25 10:49:07;;;;;;;12.70;9.03;;;4.90;99.90;;;;;;5072130;28;20520;-69
2021/11/25 10:51:37;;;;;;;14.93;10.33;;;4.80;99.90;;;;;;5071890;28;20481;-72
2021/11/25 10:54:07;;;;;;;18.77;8.83;;;4.90;99.90;;;;;;5071537;28;20151;-70
2021/11/25 10:56:36;;;;;;;9.97;7.60;;;4.80;99.90;;;;;;5071965;28;20056;-72
2021/11/25 10:59:03;;;;;;;19.93;11.30;;;4.70;99.90;;;;;;5071657;28;20102;-71
2021/11/25 11:01:35;;;;;;;15.80;10.77;;;4.70;99.90;;;;;;5071697;28;20145;-71
2021/11/25 11:04:02;;;;;;;23.93;13.03;;;4.60;99.90;;;;;;5071440;28;20052;-70
2021/11/25 11:06:33;;;;;;;16.93;11.90;;;4.60;99.90;;;;;;5071819;28;20098;-71
2021/11/25 11:09:04;;;;;;;13.95;9.77;;;4.50;99.90;;;;;;5071719;28;20044;-69
2021/11/25 11:11:34;;;;;;;19.02;12.00;;;4.60;99.90;;;;;;5071996;28;20052;-70
2021/11/25 11:17:21;;;;;;;18.80;11.43;;;4.50;99.90;;;;;;5065975;28;20045;-70
2021/11/25 11:20:07;;;;;;;20.80;13.27;;;4.40;99.90;;;;;;5071569;28;20473;-71
2021/11/25 11:22:34;;;;;;;21.07;13.40;;;4.40;99.90;;;;;;5071517;28;20162;-70
2021/11/25 11:25:04;;;;;;;22.30;13.03;;;4.40;99.90;;;;;;5071167;28;20055;-69
2021/11/25 11:27:31;;;;;;;24.00;14.10;;;4.40;99.90;;;;;;5071531;28;20040;-69
2021/11/25 11:29:58;;;;;;;17.27;11.70;;;4.40;99.90;;;;;;5071485;28;20055;-70
2021/11/25 11:32:25;;;;;;;21.53;13.27;;;4.40;99.90;;;;;;5071434;28;20048;-70
2021/11/25 11:34:53;;;;;;;21.53;11.87;;;4.40;99.90;;;;;;5071366;28;20045;-70
2021/11/25 11:37:21;;;;;;;16.47;11.73;;;4.30;99.90;;;;;;5071521;28;20048;-71
2021/11/25 11:39:48;;;;;;;24.73;14.67;;;4.30;99.90;;;;;;5071360;28;20048;-69
2021/11/25 11:42:17;;;;;;;20.13;12.03;;;4.30;99.90;;;;;;5071444;28;20137;-69
2021/11/25 11:44:45;;;;;;;24.33;13.47;;;4.40;99.90;;;;;;5070746;28;20044;-70
2021/11/25 11:47:14;;;;;;;20.03;12.27;;;4.40;99.90;;;;;;5071417;28;20084;-69
2021/11/25 11:49:43;;;;;;;22.90;13.00;;;4.30;99.90;;;;;;5071466;28;20052;-70
2021/11/25 11:52:13;;;;;;;27.57;15.47;;;4.30;99.90;;;;;;5071493;28;20106;-72
2021/11/25 11:54:42;;;;;;;23.90;13.50;;;4.30;99.90;;;;;;5074910;28;20083;-69
2021/11/25 11:57:38;;;;;;;21.97;13.60;;;4.30;99.90;;;;;;5075266;28;20397;-71
2021/11/25 12:00:26;;;;;;;25.40;14.50;;;4.30;99.90;;;;;;5075188;28;20159;-70
2021/11/25 12:02:55;;;;;;;24.37;15.03;;;4.30;99.90;;;;;;5075046;28;20041;-72
2021/11/25 12:05:48;;;;;;;25.97;14.17;;;4.30;99.90;;;;;;5074778;28;20424;-69
2021/11/25 12:08:45;;;;;;;20.10;12.60;;;4.40;99.90;;;;;;5072023;28;20079;-71
2021/11/25 12:11:18;;;;;;;21.97;14.07;;;4.40;99.90;;;;;;5040165;28;20055;-72
2021/11/25 12:14:02;;;;;;;18.37;12.47;;;4.40;99.90;;;;;;5074378;28;20489;-72
2021/11/25 12:16:31;;;;;;;19.37;12.53;;;4.30;99.90;;;;;;5075143;28;20072;-71
2021/11/25 12:19:00;;;;;;;21.30;12.77;;;4.30;99.90;;;;;;5074698;28;20044;-72
2021/11/25 12:21:46;;;;;;;29.93;15.23;;;4.40;99.90;;;;;;5074758;28;20064;-77
2021/11/25 12:24:19;;;;;;;20.43;12.47;;;4.30;99.90;;;;;;5074476;28;20061;-71
2021/11/25 12:27:28;;;;;;;19.17;11.53;;;4.30;99.90;;;;;;5074840;28;20053;-70
2021/11/25 12:30:10;;;;;;;24.40;15.57;;;4.40;99.90;;;;;;5065094;28;20484;-71
2021/11/25 12:32:52;;;;;;;;;;;4.40;99.90;;;;;;5075168;28;20484;-73
2021/11/25 12:35:44;;;;;;;17.92;11.57;;;4.40;99.90;;;;;;5074324;28;20445;-71
2021/11/25 12:38:16;;;;;;;;;;;4.30;99.90;;;;;;5074880;28;20095;-71
2021/11/25 12:40:45;;;;;;;21.90;13.60;;;4.20;99.90;;;;;;5074366;28;19932;-71
2021/11/25 12:43:14;;;;;;;22.07;13.47;;;4.20;99.90;;;;;;5073740;28;20040;-72
2021/11/25 12:45:45;;;;;;;19.40;13.50;;;4.30;99.90;;;;;;5074467;28;20048;-73
2021/11/25 12:48:18;;;;;;;18.07;10.20;;;4.30;99.90;;;;;;5074534;28;20068;-69
2021/11/25 12:50:50;;;;;;;16.00;10.07;;;4.20;99.90;;;;;;5074816;28;20439;-73
2021/11/25 12:53:20;;;;;;;24.13;15.27;;;4.10;99.90;;;;;;5075649;28;20546;-79
2021/11/25 12:55:54;;;;;;;18.70;12.57;;;4.20;99.90;;;;;;5077797;28;20447;-77
2021/11/25 12:58:21;;;;;;;22.33;12.83;;;4.20;99.90;;;;;;5075874;28;20083;-76
2021/11/25 13:00:49;;;;;;;20.33;12.67;;;4.20;99.90;;;;;;5074946;28;20459;-76
2021/11/25 13:03:19;;;;;;;19.07;12.73;;;4.20;99.90;;;;;;5074480;28;20059;-71